Time;durP1;ratioP1;P1;durP2;ratioP2;P2;SDS_P1;SDS_P2;PMS_P1;PMS_P2;Temp;Humidity;BMP_temperature;BMP_pressure;BME280_temperature;BME280_humidity;BME280_pressure;Samples;Min_cycle;Max_cycle;Signal;HPM_P1;HPM_P2
2022/07/28 00:02:17;;;;;;;0.68;0.50;;;11.90;99.90;;;;;;5073875;28;20167;-63
2022/07/28 00:04:43;;;;;;;0.55;0.50;;;11.90;99.90;;;;;;5073900;28;20048;-63
2022/07/28 00:07:09;;;;;;;0.70;0.60;;;11.90;99.90;;;;;;5074167;28;20381;-63
2022/07/28 00:09:34;;;;;;;1.13;0.50;;;11.80;99.90;;;;;;5074070;28;20059;-63
2022/07/28 00:12:00;;;;;;;0.65;0.50;;;11.80;99.90;;;;;;5073670;28;20492;-63
2022/07/28 00:14:26;;;;;;;0.35;0.32;;;11.80;99.90;;;;;;5072487;28;20120;-63
2022/07/28 00:16:52;;;;;;;0.35;0.35;;;11.80;99.90;;;;;;5073940;28;20037;-63
2022/07/28 00:19:17;;;;;;;4.25;0.57;;;11.80;99.90;;;;;;5073935;28;20531;-63
2022/07/28 00:21:43;;;;;;;1.77;0.40;;;11.60;99.90;;;;;;5073902;28;20411;-63
2022/07/28 00:24:09;;;;;;;3.47;0.55;;;11.70;99.90;;;;;;5073558;28;20037;-63
2022/07/28 00:26:35;;;;;;;0.65;0.40;;;11.70;99.90;;;;;;5073800;28;20033;-63
2022/07/28 00:29:00;;;;;;;1.17;0.73;;;11.60;99.90;;;;;;5073804;28;20043;-63
2022/07/28 00:31:26;;;;;;;1.23;0.47;;;11.60;99.90;;;;;;5073289;28;20040;-63
2022/07/28 00:33:52;;;;;;;0.98;0.50;;;11.50;99.90;;;;;;5073322;28;20158;-63
2022/07/28 00:36:17;;;;;;;1.15;0.52;;;11.50;99.90;;;;;;5073610;28;20090;-64
2022/07/28 00:38:43;;;;;;;1.10;0.60;;;11.60;99.90;;;;;;5073631;28;20036;-63
2022/07/28 00:41:11;;;;;;;1.23;0.60;;;11.80;99.90;;;;;;5072041;28;20044;-63
2022/07/28 00:43:43;;;;;;;0.55;0.40;;;11.40;99.90;;;;;;5072157;28;20083;-63
2022/07/28 00:46:10;;;;;;;0.30;0.30;;;11.40;99.90;;;;;;5073507;28;20037;-63
2022/07/28 00:48:41;;;;;;;1.13;0.60;;;12.00;99.90;;;;;;5073407;28;20040;-63
2022/07/28 00:51:08;;;;;;;0.60;0.57;;;11.30;99.90;;;;;;5073392;28;20067;-63
2022/07/28 00:53:35;;;;;;;2.35;0.63;;;11.50;99.90;;;;;;5073072;28;20070;-63
2022/07/28 00:56:00;;;;;;;2.13;0.68;;;11.30;99.90;;;;;;5073316;28;20527;-63
2022/07/28 00:58:27;;;;;;;1.73;0.50;;;11.30;99.90;;;;;;5072784;28;20045;-63
2022/07/28 01:00:53;;;;;;;0.52;0.47;;;11.50;99.90;;;;;;5073014;28;20166;-63
2022/07/28 01:03:20;;;;;;;0.82;0.60;;;11.30;99.90;;;;;;5072892;28;20063;-63
2022/07/28 01:05:54;;;;;;;2.13;0.60;;;11.30;99.90;;;;;;5073222;28;20403;-63
2022/07/28 01:08:48;;;;;;;1.55;0.40;;;11.30;99.90;;;;;;5073164;28;20051;-63
2022/07/28 01:11:43;;;;;;;0.55;0.43;;;11.30;99.90;;;;;;5072833;28;20052;-63
2022/07/28 01:14:34;;;;;;;0.40;0.40;;;11.20;99.90;;;;;;5072515;28;20052;-63
2022/07/28 01:17:23;;;;;;;0.75;0.35;;;11.20;99.90;;;;;;5073184;28;20036;-63
2022/07/28 01:20:04;;;;;;;1.05;0.50;;;11.20;99.90;;;;;;5071855;28;20086;-63
2022/07/28 01:22:36;;;;;;;1.35;0.55;;;11.20;99.90;;;;;;5072815;28;20128;-63
2022/07/28 01:25:23;;;;;;;0.90;0.43;;;11.20;99.90;;;;;;5072981;28;20074;-64
2022/07/28 01:28:00;;;;;;;1.63;0.60;;;11.10;99.90;;;;;;5071457;28;20040;-64
2022/07/28 01:30:40;;;;;;;4.43;0.73;;;11.10;99.90;;;;;;5072924;28;20048;-63
2022/07/28 01:33:23;;;;;;;0.80;0.60;;;11.10;99.90;;;;;;5072903;28;20393;-64
2022/07/28 01:36:04;;;;;;;0.95;0.65;;;11.10;99.90;;;;;;5072927;28;20040;-63
2022/07/28 01:38:32;;;;;;;1.90;0.47;;;11.10;99.90;;;;;;5072929;28;20480;-63
2022/07/28 01:41:00;;;;;;;0.82;0.40;;;11.80;99.90;;;;;;5072525;28;20044;-64
2022/07/28 01:43:30;;;;;;;0.73;0.50;;;11.10;99.90;;;;;;5072840;28;20051;-64
2022/07/28 01:45:57;;;;;;;0.87;0.60;;;11.00;99.90;;;;;;5072502;28;20134;-64
2022/07/28 01:48:25;;;;;;;1.02;0.50;;;11.10;99.90;;;;;;5072473;28;20270;-63
2022/07/28 01:50:54;;;;;;;1.15;0.52;;;11.00;99.90;;;;;;5072517;28;20045;-64
2022/07/28 01:53:21;;;;;;;1.27;0.50;;;11.00;99.90;;;;;;5072435;28;20381;-63
2022/07/28 01:55:48;;;;;;;0.57;0.50;;;11.00;99.90;;;;;;5072383;28;20040;-63
2022/07/28 01:58:17;;;;;;;1.42;0.43;;;11.80;99.90;;;;;;5072663;28;20075;-63
2022/07/28 02:00:44;;;;;;;0.98;0.47;;;11.00;99.90;;;;;;5072696;28;20380;-63
2022/07/28 02:03:11;;;;;;;1.35;0.57;;;11.00;99.90;;;;;;5071375;28;20403;-63
2022/07/28 02:05:40;;;;;;;1.05;0.50;;;11.00;99.90;;;;;;5072598;28;20488;-63
2022/07/28 02:08:06;;;;;;;0.75;0.52;;;10.90;99.90;;;;;;5072647;28;20052;-64
2022/07/28 02:10:34;;;;;;;0.55;0.43;;;10.90;99.90;;;;;;5073866;28;20048;-63
2022/07/28 02:13:01;;;;;;;2.00;0.43;;;11.70;99.90;;;;;;5074774;28;20135;-64
2022/07/28 02:15:28;;;;;;;1.40;0.52;;;11.30;99.90;;;;;;5076327;28;20063;-64
2022/07/28 02:17:55;;;;;;;1.02;0.60;;;11.00;99.90;;;;;;5108717;28;20041;-63
2022/07/28 02:20:21;;;;;;;2.03;0.93;;;11.00;99.90;;;;;;5076202;28;20037;-63
2022/07/28 02:22:48;;;;;;;0.65;0.55;;;11.10;99.90;;;;;;5076164;28;20033;-63
2022/07/28 02:25:14;;;;;;;0.40;0.40;;;11.00;99.90;;;;;;5076102;28;20123;-63
2022/07/28 02:27:46;;;;;;;0.40;0.30;;;11.00;99.90;;;;;;5076003;28;20111;-63
2022/07/28 02:30:22;;;;;;;0.82;0.45;;;10.90;99.90;;;;;;5075797;28;20048;-63
2022/07/28 02:32:50;;;;;;;1.23;0.57;;;11.00;99.90;;;;;;5075958;28;20125;-63
2022/07/28 02:35:42;;;;;;;3.65;0.77;;;11.00;99.90;;;;;;5076046;28;20039;-63
2022/07/28 02:38:23;;;;;;;1.30;0.50;;;11.00;99.90;;;;;;5072562;28;20045;-64
2022/07/28 02:40:53;;;;;;;0.70;0.50;;;11.00;99.90;;;;;;5075579;28;20044;-63
2022/07/28 02:43:30;;;;;;;0.60;0.60;;;10.90;99.90;;;;;;5075878;28;20615;-63
2022/07/28 02:45:59;;;;;;;1.75;0.55;;;10.90;99.90;;;;;;5074208;28;20094;-63
2022/07/28 02:48:29;;;;;;;0.45;0.40;;;10.90;99.90;;;;;;5075352;28;20055;-64
2022/07/28 02:50:57;;;;;;;0.43;0.40;;;10.80;99.90;;;;;;5075740;28;20037;-63
2022/07/28 02:53:24;;;;;;;0.57;0.40;;;10.80;99.90;;;;;;5073957;28;20048;-63
2022/07/28 02:55:50;;;;;;;0.70;0.40;;;10.80;99.90;;;;;;5075286;28;20076;-64
2022/07/28 02:58:21;;;;;;;1.00;0.45;;;10.80;99.90;;;;;;5075298;28;20040;-63
2022/07/28 03:00:50;;;;;;;;;;;10.80;99.90;;;;;;5075572;28;20079;-63
2022/07/28 03:03:20;;;;;;;0.82;0.50;;;10.70;99.90;;;;;;5075487;28;20372;-63
2022/07/28 03:05:46;;;;;;;0.55;0.40;;;11.70;99.90;;;;;;5075373;28;20048;-64
2022/07/28 03:08:12;;;;;;;0.52;0.43;;;10.70;99.90;;;;;;5075402;28;20399;-64
2022/07/28 03:10:38;;;;;;;1.10;0.50;;;10.70;99.90;;;;;;5075174;28;20045;-63
2022/07/28 03:13:08;;;;;;;0.30;0.30;;;10.70;99.90;;;;;;5073677;28;20052;-64
2022/07/28 03:15:35;;;;;;;1.40;0.63;;;10.70;99.90;;;;;;5075174;28;20040;-63
2022/07/28 03:18:02;;;;;;;1.33;0.70;;;10.70;99.90;;;;;;5074990;28;20123;-63
2022/07/28 03:20:29;;;;;;;1.60;0.63;;;10.80;99.90;;;;;;5074738;28;20032;-63
2022/07/28 03:22:55;;;;;;;3.08;0.70;;;10.80;99.90;;;;;;5075041;28;20075;-63
2022/07/28 03:25:33;;;;;;;3.03;0.70;;;10.60;99.90;;;;;;5075066;28;20426;-64
2022/07/28 03:28:02;;;;;;;0.70;0.57;;;10.60;99.90;;;;;;5075013;28;20044;-63
2022/07/28 03:30:33;;;;;;;0.90;0.68;;;10.50;99.90;;;;;;5074938;28;20067;-63
2022/07/28 03:33:01;;;;;;;1.48;0.70;;;10.70;99.90;;;;;;5074584;28;20059;-63
2022/07/28 03:35:31;;;;;;;0.73;0.50;;;10.50;99.90;;;;;;5074594;28;20079;-63
2022/07/28 03:38:12;;;;;;;0.85;0.60;;;10.70;99.90;;;;;;5074826;28;20048;-64
2022/07/28 03:40:38;;;;;;;1.52;0.70;;;10.70;99.90;;;;;;5074725;28;20499;-63
2022/07/28 03:43:07;;;;;;;1.00;0.57;;;10.40;99.90;;;;;;5074668;28;20052;-63
2022/07/28 03:45:36;;;;;;;1.17;0.70;;;10.80;99.90;;;;;;5074293;28;20048;-64
2022/07/28 03:48:02;;;;;;;0.70;0.60;;;10.40;99.90;;;;;;5074570;28;20488;-63
2022/07/28 03:50:30;;;;;;;1.40;0.50;;;10.40;99.90;;;;;;5074529;28;20048;-64
2022/07/28 03:52:57;;;;;;;1.33;0.63;;;10.40;99.90;;;;;;5074409;28;20049;-63
2022/07/28 03:55:23;;;;;;;0.63;0.50;;;10.40;99.90;;;;;;5074092;28;20047;-63
2022/07/28 03:57:49;;;;;;;1.42;0.70;;;10.30;99.90;;;;;;5074087;28;20044;-64
2022/07/28 04:00:16;;;;;;;0.73;0.52;;;10.30;99.90;;;;;;5074024;28;20567;-64
2022/07/28 04:02:43;;;;;;;2.65;0.57;;;10.30;99.90;;;;;;5072748;28;20040;-63
2022/07/28 04:05:17;;;;;;;0.68;0.50;;;10.50;99.90;;;;;;5074250;28;20395;-64
2022/07/28 04:07:44;;;;;;;1.63;0.57;;;11.10;99.90;;;;;;5074187;28;20040;-64
2022/07/28 04:10:12;;;;;;;1.77;0.60;;;10.20;99.90;;;;;;5073827;28;20037;-64
2022/07/28 04:12:56;;;;;;;1.38;0.63;;;10.20;99.90;;;;;;5073533;28;20055;-63
2022/07/28 04:15:23;;;;;;;0.95;0.60;;;10.60;99.90;;;;;;5074016;28;20040;-63
2022/07/28 04:17:51;;;;;;;0.60;0.60;;;10.20;99.90;;;;;;5074046;28;20454;-63
2022/07/28 04:20:18;;;;;;;0.60;0.40;;;10.20;99.90;;;;;;5073670;28;20074;-64
2022/07/28 04:22:45;;;;;;;1.40;0.50;;;10.30;99.90;;;;;;5072362;28;20060;-63
2022/07/28 04:25:11;;;;;;;1.17;0.40;;;10.30;99.90;;;;;;5073897;28;20407;-63
2022/07/28 04:27:38;;;;;;;0.75;0.60;;;10.40;99.90;;;;;;5072227;28;20059;-64
2022/07/28 04:30:13;;;;;;;0.85;0.70;;;10.50;99.90;;;;;;5073805;28;20038;-64
2022/07/28 04:32:47;;;;;;;0.55;0.50;;;10.50;99.90;;;;;;5072618;28;20045;-63
2022/07/28 04:35:13;;;;;;;1.23;0.70;;;10.60;99.90;;;;;;5073723;28;20046;-63
2022/07/28 04:37:39;;;;;;;1.35;0.80;;;10.70;99.90;;;;;;5073611;28;20090;-63
2022/07/28 04:40:08;;;;;;;6.28;0.50;;;10.70;99.90;;;;;;5073259;28;20032;-64
2022/07/28 04:42:35;;;;;;;1.27;0.60;;;10.70;99.90;;;;;;5073484;28;20526;-63
2022/07/28 04:45:01;;;;;;;0.80;0.75;;;10.80;99.90;;;;;;5073508;28;20044;-63
2022/07/28 04:47:28;;;;;;;1.25;0.98;;;10.90;99.90;;;;;;5073469;28;20040;-63
2022/07/28 04:49:54;;;;;;;1.98;0.90;;;10.90;99.90;;;;;;5073129;28;20189;-63
2022/07/28 04:52:20;;;;;;;1.77;0.95;;;11.00;99.90;;;;;;5073315;28;20056;-64
2022/07/28 04:54:46;;;;;;;2.75;1.13;;;11.00;99.90;;;;;;5073401;28;20426;-64
2022/07/28 04:57:12;;;;;;;1.02;0.70;;;11.00;99.90;;;;;;5073034;28;20040;-63
2022/07/28 04:59:38;;;;;;;0.52;0.40;;;11.80;99.90;;;;;;5073379;28;20089;-63
2022/07/28 05:02:04;;;;;;;1.60;0.90;;;11.10;99.90;;;;;;5072948;28;20123;-63
2022/07/28 05:04:29;;;;;;;1.33;1.23;;;11.20;99.90;;;;;;5073262;28;20051;-63
2022/07/28 05:06:55;;;;;;;0.57;0.52;;;11.20;99.90;;;;;;5073001;28;20039;-63
2022/07/28 05:09:21;;;;;;;3.17;0.73;;;11.30;99.90;;;;;;5073219;28;20036;-63
2022/07/28 05:11:47;;;;;;;1.55;0.85;;;11.30;99.90;;;;;;5072600;28;20529;-63
2022/07/28 05:14:12;;;;;;;1.75;0.80;;;11.40;99.90;;;;;;5072910;28;20037;-63
2022/07/28 05:16:38;;;;;;;1.23;0.88;;;11.40;99.90;;;;;;5073167;28;20128;-63
2022/07/28 05:19:04;;;;;;;1.00;0.70;;;11.50;99.90;;;;;;5072846;28;20045;-63
2022/07/28 05:21:30;;;;;;;0.95;0.68;;;11.60;99.90;;;;;;5072756;28;20044;-63
2022/07/28 05:23:55;;;;;;;1.45;0.90;;;11.90;99.90;;;;;;5073067;28;20123;-64
2022/07/28 05:26:21;;;;;;;1.08;0.65;;;11.90;99.90;;;;;;5072780;28;20039;-63
2022/07/28 05:28:47;;;;;;;1.85;0.90;;;12.00;99.90;;;;;;5073025;28;20040;-64
2022/07/28 05:31:13;;;;;;;2.28;0.95;;;12.10;99.90;;;;;;5072891;28;20407;-63
2022/07/28 05:33:39;;;;;;;1.20;0.63;;;12.20;99.90;;;;;;5073014;28;20357;-63
2022/07/28 05:36:05;;;;;;;4.88;0.70;;;12.40;99.90;;;;;;5072621;28;20047;-63
2022/07/28 05:38:31;;;;;;;1.52;0.82;;;12.50;99.90;;;;;;5072634;28;20079;-63
2022/07/28 05:40:58;;;;;;;1.63;0.93;;;12.70;99.90;;;;;;5071432;28;20364;-63
2022/07/28 05:43:24;;;;;;;2.47;1.20;;;12.80;99.90;;;;;;5072882;28;20119;-63
2022/07/28 05:45:50;;;;;;;2.28;1.25;;;12.90;99.90;;;;;;5075426;28;20080;-63
2022/07/28 05:48:17;;;;;;;1.85;1.20;;;13.00;99.90;;;;;;5076925;28;20063;-63
2022/07/28 05:50:43;;;;;;;1.80;1.15;;;13.20;99.90;;;;;;5076875;28;20041;-63
2022/07/28 05:53:09;;;;;;;1.55;0.95;;;13.40;99.90;;;;;;5076415;28;20052;-63
2022/07/28 05:55:34;;;;;;;1.52;1.08;;;13.60;99.90;;;;;;5075484;28;20181;-64
2022/07/28 05:58:00;;;;;;;2.42;1.02;;;13.70;99.90;;;;;;5076677;28;20037;-63
2022/07/28 06:00:26;;;;;;;1.42;1.00;;;13.80;99.90;;;;;;5076251;28;20041;-63
2022/07/28 06:02:51;;;;;;;2.05;0.98;;;13.90;99.90;;;;;;5076600;28;20051;-64
2022/07/28 06:05:22;;;;;;;4.30;1.30;;;14.00;99.90;;;;;;5076575;28;20127;-63
2022/07/28 06:07:49;;;;;;;3.37;0.97;;;14.10;99.90;;;;;;5074950;28;20040;-64
2022/07/28 06:10:18;;;;;;;2.13;0.98;;;14.30;99.90;;;;;;5076452;28;20119;-64
2022/07/28 06:12:49;;;;;;;1.73;1.00;;;14.60;99.90;;;;;;5075863;28;20136;-63
2022/07/28 06:15:18;;;;;;;2.88;1.20;;;14.70;99.90;;;;;;5076409;28;20562;-63
2022/07/28 06:17:44;;;;;;;1.38;0.88;;;14.90;99.90;;;;;;5076012;28;20033;-64
2022/07/28 06:20:11;;;;;;;1.92;1.05;;;15.00;99.90;;;;;;5076039;28;20131;-63
2022/07/28 06:22:44;;;;;;;2.22;1.05;;;15.10;99.90;;;;;;5075961;28;20157;-63
2022/07/28 06:25:24;;;;;;;1.67;1.10;;;15.30;99.90;;;;;;5076145;28;20041;-64
2022/07/28 06:27:55;;;;;;;1.20;0.70;;;15.40;99.90;;;;;;5075798;28;20123;-64
2022/07/28 06:30:21;;;;;;;0.63;0.50;;;15.50;99.90;;;;;;5075961;28;20094;-63
2022/07/28 06:32:48;;;;;;;0.40;0.40;;;15.50;99.90;;;;;;5074508;28;20080;-64
2022/07/28 06:35:15;;;;;;;1.35;0.75;;;15.60;99.90;;;;;;5075967;28;20032;-63
2022/07/28 06:37:45;;;;;;;1.90;0.50;;;15.60;99.90;;;;;;5075916;28;20545;-63
2022/07/28 06:40:12;;;;;;;1.13;0.65;;;15.70;99.90;;;;;;5075884;28;20465;-64
2022/07/28 06:42:39;;;;;;;1.05;0.70;;;15.90;99.90;;;;;;5075784;28;20044;-64
2022/07/28 06:45:09;;;;;;;1.58;0.73;;;15.90;99.90;;;;;;5075508;28;20043;-64
2022/07/28 06:47:34;;;;;;;2.72;0.30;;;16.00;99.90;;;;;;5074362;28;20048;-64
2022/07/28 06:50:01;;;;;;;1.30;0.55;;;16.00;99.90;;;;;;5075431;28;20047;-64
2022/07/28 06:52:26;;;;;;;0.80;0.55;;;15.90;99.90;;;;;;5075621;28;20115;-63
2022/07/28 06:54:52;;;;;;;0.40;0.40;;;15.90;99.90;;;;;;5075626;28;20071;-63
2022/07/28 06:57:20;;;;;;;0.73;0.38;;;16.10;99.90;;;;;;5074806;28;20387;-64
2022/07/28 06:59:46;;;;;;;1.23;0.50;;;16.10;99.90;;;;;;5075133;28;20033;-64
2022/07/28 07:02:13;;;;;;;0.93;0.52;;;16.20;99.90;;;;;;5075499;28;20488;-63
2022/07/28 07:04:38;;;;;;;0.65;0.40;;;16.10;99.90;;;;;;5073954;28;20087;-64
2022/07/28 07:07:04;;;;;;;1.80;0.80;;;16.30;99.90;;;;;;5075145;28;20051;-63
2022/07/28 07:09:30;;;;;;;1.00;0.57;;;16.40;99.90;;;;;;5075033;28;20040;-63
2022/07/28 07:11:56;;;;;;;6.20;0.73;;;16.70;99.90;;;;;;5074918;28;20056;-63
2022/07/28 07:14:22;;;;;;;1.63;0.55;;;16.70;99.90;;;;;;5075019;28;20392;-63
2022/07/28 07:16:49;;;;;;;1.15;0.40;;;16.80;99.90;;;;;;5074946;28;20032;-63
2022/07/28 07:19:15;;;;;;;1.92;0.60;;;16.90;99.90;;;;;;5075222;28;20037;-63
2022/07/28 07:21:41;;;;;;;1.33;0.45;;;16.90;99.90;;;;;;5075048;28;20048;-64
2022/07/28 07:24:07;;;;;;;0.32;0.30;;;17.10;99.90;;;;;;5075137;28;20036;-63
2022/07/28 07:26:33;;;;;;;0.80;0.45;;;17.30;99.90;;;;;;5073943;28;20040;-63
2022/07/28 07:28:59;;;;;;;3.13;0.50;;;17.40;99.90;;;;;;5075097;28;20377;-64
2022/07/28 07:31:24;;;;;;;1.05;0.30;;;17.50;99.90;;;;;;5074816;28;20079;-63
2022/07/28 07:33:50;;;;;;;0.80;0.50;;;17.60;99.90;;;;;;5073656;28;20053;-63
2022/07/28 07:36:16;;;;;;;0.32;0.32;;;17.60;99.90;;;;;;5074608;28;20449;-63
2022/07/28 07:38:41;;;;;;;3.40;0.35;;;17.60;99.90;;;;;;5074773;28;20036;-64
2022/07/28 07:41:07;;;;;;;0.40;0.40;;;17.70;99.90;;;;;;5074744;28;20123;-63
2022/07/28 07:43:33;;;;;;;1.45;0.45;;;17.70;99.90;;;;;;5073230;28;20044;-64
2022/07/28 07:45:58;;;;;;;0.30;0.30;;;17.70;99.90;;;;;;5074654;28;20127;-64
2022/07/28 07:48:24;;;;;;;1.13;0.47;;;17.60;99.90;;;;;;5074597;28;20040;-63
2022/07/28 07:50:50;;;;;;;1.00;0.52;;;17.60;99.90;;;;;;5074595;28;20072;-63
2022/07/28 07:53:15;;;;;;;2.17;0.57;;;17.60;99.90;;;;;;5074464;28;20105;-63
2022/07/28 07:55:41;;;;;;;0.30;0.30;;;17.50;99.90;;;;;;5074460;28;20072;-63
2022/07/28 07:58:07;;;;;;;0.73;0.50;;;17.50;99.90;;;;;;5074408;28;20040;-64
2022/07/28 08:00:33;;;;;;;1.42;0.50;;;17.60;99.90;;;;;;5073999;28;20377;-63
2022/07/28 08:02:59;;;;;;;1.55;0.50;;;17.70;99.90;;;;;;5074357;28;20037;-63
2022/07/28 08:05:25;;;;;;;1.33;0.47;;;17.70;99.90;;;;;;5074264;28;20510;-63
2022/07/28 08:07:51;;;;;;;0.65;0.22;;;17.70;99.90;;;;;;5073897;28;20087;-64
2022/07/28 08:10:17;;;;;;;1.13;0.60;;;17.70;99.90;;;;;;5074143;28;20044;-63
2022/07/28 08:12:42;;;;;;;1.48;0.85;;;17.80;99.90;;;;;;5073579;28;20053;-63
2022/07/28 08:15:08;;;;;;;0.88;0.70;;;17.80;99.90;;;;;;5074153;28;20066;-64
2022/07/28 08:17:34;;;;;;;2.72;1.13;;;17.70;99.90;;;;;;5074341;28;20032;-63
2022/07/28 08:20:02;;;;;;;3.55;0.90;;;17.70;99.90;;;;;;5073721;28;20541;-63
2022/07/28 08:22:28;;;;;;;1.60;0.90;;;17.80;99.90;;;;;;5072586;28;20044;-63
2022/07/28 08:24:53;;;;;;;2.58;1.27;;;17.80;99.90;;;;;;5073906;28;20052;-63
2022/07/28 08:27:19;;;;;;;1.48;0.80;;;17.90;99.90;;;;;;5073831;28;20415;-63
2022/07/28 08:29:45;;;;;;;1.63;0.77;;;17.80;99.90;;;;;;5073498;28;20036;-63
2022/07/28 08:32:11;;;;;;;0.82;0.50;;;17.90;99.90;;;;;;5073349;28;20040;-63
2022/07/28 08:34:37;;;;;;;1.58;0.70;;;18.00;99.90;;;;;;5073450;28;20051;-63
2022/07/28 08:37:04;;;;;;;0.52;0.47;;;18.10;99.90;;;;;;5073643;28;20044;-63
2022/07/28 08:39:33;;;;;;;2.90;0.60;;;18.00;99.90;;;;;;5073633;28;20041;-63
2022/07/28 08:42:24;;;;;;;2.25;0.60;;;17.90;99.90;;;;;;5073562;28;20098;-63
2022/07/28 08:45:03;;;;;;;2.40;0.70;;;18.10;99.90;;;;;;5073241;28;20045;-63
2022/07/28 08:47:31;;;;;;;0.30;0.30;;;18.20;99.90;;;;;;5073545;28;20392;-63
2022/07/28 08:49:58;;;;;;;0.50;0.50;;;18.20;99.90;;;;;;5071861;28;20071;-64
2022/07/28 08:52:28;;;;;;;1.10;0.60;;;18.30;99.90;;;;;;5072976;28;20045;-64
2022/07/28 08:54:55;;;;;;;2.17;0.80;;;18.20;99.90;;;;;;5073428;28;20041;-63
2022/07/28 08:57:31;;;;;;;0.85;0.57;;;18.30;99.90;;;;;;5073043;28;20033;-63
2022/07/28 08:59:57;;;;;;;0.65;0.43;;;18.50;99.90;;;;;;5073390;28;20090;-63
2022/07/28 09:02:27;;;;;;;1.50;0.50;;;18.70;99.90;;;;;;5072973;28;20041;-63
2022/07/28 09:04:58;;;;;;;2.28;0.52;;;18.80;99.90;;;;;;5073049;28;20092;-64
2022/07/28 09:07:24;;;;;;;1.58;0.40;;;19.00;99.90;;;;;;5055031;28;20051;-64
2022/07/28 09:09:50;;;;;;;1.13;0.45;;;19.10;99.90;;;;;;5072919;28;20048;-63
2022/07/28 09:12:16;;;;;;;0.88;0.60;;;19.10;99.90;;;;;;5072776;28;20057;-63
2022/07/28 09:14:42;;;;;;;0.70;0.50;;;18.90;99.90;;;;;;5073146;28;20044;-64
2022/07/28 09:17:08;;;;;;;1.02;0.47;;;18.70;99.90;;;;;;5072788;28;20037;-64
2022/07/28 09:19:36;;;;;;;0.85;0.60;;;18.50;99.90;;;;;;5072340;28;20032;-63
2022/07/28 09:22:02;;;;;;;0.98;0.47;;;18.40;99.90;;;;;;5071790;28;20484;-63
2022/07/28 09:24:31;;;;;;;0.90;0.60;;;18.30;99.90;;;;;;5073049;28;20119;-63
2022/07/28 09:26:59;;;;;;;3.88;0.60;;;18.20;99.90;;;;;;5072989;28;20044;-63
2022/07/28 09:29:25;;;;;;;1.02;0.45;;;18.10;99.90;;;;;;5072638;28;20089;-63
2022/07/28 09:31:51;;;;;;;1.15;0.60;;;18.00;99.90;;;;;;5072591;28;20052;-64
2022/07/28 09:34:17;;;;;;;0.90;0.70;;;17.90;99.90;;;;;;5072658;28;20044;-64
2022/07/28 09:36:43;;;;;;;0.57;0.50;;;18.00;99.90;;;;;;5071751;28;20044;-63
2022/07/28 09:39:09;;;;;;;0.68;0.40;;;18.00;99.90;;;;;;5072669;28;20036;-63
2022/07/28 09:41:47;;;;;;;3.70;0.60;;;18.10;99.90;;;;;;5072681;28;20066;-63
2022/07/28 09:44:18;;;;;;;1.33;0.70;;;18.10;99.90;;;;;;5072859;28;20496;-63
2022/07/28 09:46:44;;;;;;;2.25;0.50;;;18.30;99.90;;;;;;5071579;28;20487;-63
2022/07/28 09:49:09;;;;;;;1.42;0.55;;;18.30;99.90;;;;;;5072830;28;20032;-64
2022/07/28 09:51:35;;;;;;;0.82;0.60;;;18.30;99.90;;;;;;5072736;28;20162;-63
2022/07/28 09:54:16;;;;;;;1.70;0.80;;;18.40;99.90;;;;;;5072789;28;20040;-63
2022/07/28 09:56:43;;;;;;;1.05;0.50;;;18.50;99.90;;;;;;5072693;28;20028;-63
2022/07/28 09:59:11;;;;;;;1.25;0.60;;;18.50;99.90;;;;;;5071191;28;20049;-64
2022/07/28 10:01:49;;;;;;;1.20;0.50;;;18.50;99.90;;;;;;5071362;28;20098;-63
2022/07/28 10:04:15;;;;;;;0.80;0.47;;;18.50;99.90;;;;;;5072380;28;20044;-63
2022/07/28 10:06:41;;;;;;;1.73;0.40;;;18.50;99.90;;;;;;5072585;28;20047;-63
2022/07/28 10:09:06;;;;;;;1.45;0.63;;;18.50;99.90;;;;;;5072139;28;20041;-63
2022/07/28 10:11:32;;;;;;;0.40;0.40;;;18.50;99.90;;;;;;5072096;28;20068;-64
2022/07/28 10:13:58;;;;;;;1.30;0.70;;;18.60;99.90;;;;;;5072368;28;20052;-63
2022/07/28 10:16:30;;;;;;;0.40;0.40;;;18.70;99.90;;;;;;5072298;28;20033;-63
2022/07/28 10:18:58;;;;;;;0.40;0.40;;;18.50;99.90;;;;;;5072549;28;20481;-63
2022/07/28 10:21:24;;;;;;;1.75;0.60;;;18.50;99.90;;;;;;5072223;28;20369;-64
2022/07/28 10:23:57;;;;;;;1.85;0.63;;;18.60;99.90;;;;;;5072520;28;20058;-63
2022/07/28 10:26:37;;;;;;;1.77;0.50;;;18.80;99.90;;;;;;5072397;28;20392;-63
2022/07/28 10:29:08;;;;;;;1.08;0.50;;;18.90;99.90;;;;;;5072526;28;20369;-63
2022/07/28 10:31:50;;;;;;;2.50;0.75;;;19.10;99.90;;;;;;5073875;28;20040;-63
2022/07/28 10:34:33;;;;;;;0.40;0.32;;;19.30;99.90;;;;;;5076148;28;20045;-63
2022/07/28 10:37:02;;;;;;;0.65;0.50;;;19.10;99.90;;;;;;5076006;28;20044;-64
2022/07/28 10:39:38;;;;;;;0.80;0.52;;;19.40;99.90;;;;;;5075941;28;20060;-63
2022/07/28 10:42:07;;;;;;;0.60;0.30;;;19.50;99.90;;;;;;5075617;28;20112;-63
2022/07/28 10:44:33;;;;;;;0.30;0.30;;;19.70;99.90;;;;;;5075816;28;20047;-63
2022/07/28 10:46:59;;;;;;;0.70;0.60;;;19.70;99.90;;;;;;5075502;28;20523;-63
2022/07/28 10:49:26;;;;;;;1.38;0.70;;;19.70;99.90;;;;;;5074225;28;20055;-63
2022/07/28 10:51:53;;;;;;;2.05;0.50;;;19.50;99.90;;;;;;5075262;28;20072;-64
2022/07/28 10:54:29;;;;;;;1.60;0.40;;;19.50;99.90;;;;;;5075296;28;20044;-64
2022/07/28 10:57:01;;;;;;;0.30;0.30;;;19.50;99.90;;;;;;5075670;28;20033;-64
2022/07/28 10:59:58;;;;;;;0.65;0.40;;;19.60;99.90;;;;;;5075317;28;20036;-70
2022/07/28 11:02:54;;;;;;;0.77;0.40;;;19.60;99.90;;;;;;5074131;28;20052;-71
2022/07/28 11:05:39;;;;;;;0.82;0.50;;;19.70;99.90;;;;;;5075620;28;20123;-70
2022/07/28 11:08:25;;;;;;;0.98;0.47;;;19.70;99.90;;;;;;5075121;28;20070;-69
2022/07/28 11:10:52;;;;;;;1.00;0.60;;;19.80;99.90;;;;;;5075190;28;20392;-69
2022/07/28 11:13:34;;;;;;;0.65;0.50;;;19.80;99.90;;;;;;5075275;28;20056;-69
2022/07/28 11:16:11;;;;;;;0.90;0.50;;;19.90;99.90;;;;;;5075287;28;20036;-70
2022/07/28 11:19:02;;;;;;;0.77;0.32;;;19.90;99.90;;;;;;5075256;28;20563;-69
2022/07/28 11:21:28;;;;;;;0.75;0.52;;;20.00;99.90;;;;;;5075180;28;20129;-70
2022/07/28 11:23:57;;;;;;;0.60;0.32;;;20.00;99.90;;;;;;5075125;28;20087;-70
2022/07/28 11:26:22;;;;;;;2.15;0.73;;;20.00;99.90;;;;;;5075092;28;20036;-69
2022/07/28 11:29:18;;;;;;;0.45;0.40;;;20.00;99.90;;;;;;5075047;28;20384;-70
2022/07/28 11:31:43;;;;;;;0.63;0.50;;;20.10;99.90;;;;;;5064950;28;20064;-70
2022/07/28 11:34:20;;;;;;;1.40;0.40;;;20.20;99.90;;;;;;5074653;28;20040;-69
2022/07/28 11:37:08;;;;;;;0.65;0.50;;;20.30;99.90;;;;;;5073734;28;20048;-70
2022/07/28 11:39:39;;;;;;;0.40;0.40;;;20.30;99.90;;;;;;5074854;28;20481;-70
2022/07/28 11:42:24;;;;;;;0.77;0.40;;;20.40;99.90;;;;;;5074505;28;20051;-69
2022/07/28 11:44:51;;;;;;;0.77;0.45;;;20.50;99.90;;;;;;5074690;28;20499;-70
2022/07/28 11:47:18;;;;;;;1.27;0.50;;;20.60;99.90;;;;;;5074396;28;20051;-69
2022/07/28 11:49:45;;;;;;;0.98;0.60;;;20.40;99.90;;;;;;5074615;28;20085;-69
2022/07/28 11:52:19;;;;;;;0.82;0.50;;;20.40;99.90;;;;;;5074294;28;20045;-69
2022/07/28 11:54:48;;;;;;;0.30;0.30;;;20.40;99.90;;;;;;5073285;28;20528;-70
2022/07/28 11:57:15;;;;;;;0.93;0.50;;;20.30;99.90;;;;;;5074243;28;20037;-70
2022/07/28 11:59:42;;;;;;;0.88;0.38;;;20.20;99.90;;;;;;5074090;28;20073;-69
2022/07/28 12:02:08;;;;;;;1.83;0.50;;;20.00;99.90;;;;;;5074441;28;20044;-70
2022/07/28 12:04:34;;;;;;;0.47;0.40;;;20.00;99.90;;;;;;5074345;28;20186;-70
2022/07/28 12:07:00;;;;;;;0.60;0.45;;;20.10;99.90;;;;;;5073977;28;20056;-70
2022/07/28 12:09:32;;;;;;;0.73;0.40;;;20.10;99.90;;;;;;5073939;28;20037;-70
2022/07/28 12:11:58;;;;;;;1.23;0.40;;;20.10;99.90;;;;;;5072453;28;20052;-69
2022/07/28 12:14:30;;;;;;;0.85;0.52;;;20.20;99.90;;;;;;5074112;28;20071;-70
2022/07/28 12:16:56;;;;;;;0.52;0.50;;;20.20;99.90;;;;;;5074046;28;20476;-70
2022/07/28 12:19:23;;;;;;;0.77;0.50;;;20.30;99.90;;;;;;5073955;28;20070;-69
2022/07/28 12:21:51;;;;;;;0.30;0.30;;;20.40;99.90;;;;;;5072445;28;20036;-70
2022/07/28 12:24:19;;;;;;;0.75;0.45;;;20.20;99.00;;;;;;5073823;28;20098;-71
2022/07/28 12:26:45;;;;;;;2.05;0.52;;;20.30;99.90;;;;;;5073912;28;20048;-71
2022/07/28 12:29:14;;;;;;;0.90;0.45;;;20.50;99.90;;;;;;5072273;28;20408;-71
2022/07/28 12:31:55;;;;;;;0.90;0.47;;;20.70;99.90;;;;;;5073696;28;20086;-68
2022/07/28 12:34:21;;;;;;;0.57;0.50;;;20.70;99.90;;;;;;5073721;28;20040;-71
2022/07/28 12:36:48;;;;;;;0.40;0.40;;;20.60;99.90;;;;;;5072515;28;20036;-70
2022/07/28 12:39:16;;;;;;;0.50;0.40;;;20.70;99.10;;;;;;5073622;28;20135;-69
2022/07/28 12:41:42;;;;;;;0.70;0.45;;;20.50;99.20;;;;;;5072291;28;20045;-70
2022/07/28 12:44:09;;;;;;;1.00;0.50;;;20.50;99.60;;;;;;5073372;28;20111;-70
2022/07/28 12:46:35;;;;;;;0.75;0.40;;;20.60;99.90;;;;;;5072088;28;20404;-70
2022/07/28 12:49:02;;;;;;;0.60;0.40;;;20.70;99.20;;;;;;5073834;28;20033;-70
2022/07/28 12:51:40;;;;;;;1.25;0.60;;;20.70;99.00;;;;;;5073418;28;20039;-70
2022/07/28 12:54:08;;;;;;;1.08;0.40;;;21.00;99.70;;;;;;5072449;28;20115;-70
2022/07/28 12:56:47;;;;;;;1.08;0.40;;;21.00;98.40;;;;;;5073412;28;20032;-71
2022/07/28 12:59:14;;;;;;;0.80;0.50;;;21.10;98.30;;;;;;5073085;28;20079;-69